createdAt,value
2023-03-03T00:00:03.666Z,1.94
2023-03-03T00:01:03.610Z,2.00
2023-03-03T00:02:04.218Z,2.00
2023-03-03T00:03:04.191Z,2.00
2023-03-03T00:04:04.229Z,1.94
2023-03-03T00:05:04.165Z,1.94
2023-03-03T00:06:04.180Z,1.94
2023-03-03T00:07:04.139Z,1.94
2023-03-03T00:08:04.216Z,1.94
2023-03-03T00:09:04.145Z,1.94
2023-03-03T00:10:04.222Z,1.94
2023-03-03T00:11:04.307Z,1.94
2023-03-03T00:12:04.224Z,1.94
2023-03-03T00:13:04.151Z,1.94
2023-03-03T00:14:04.234Z,1.94
2023-03-03T00:15:04.069Z,1.94
2023-03-03T00:16:04.097Z,1.94
2023-03-03T00:17:04.154Z,1.88
2023-03-03T00:18:03.991Z,1.88
2023-03-03T00:19:04.006Z,1.88
2023-03-03T00:20:03.905Z,1.88
2023-03-03T00:21:03.989Z,1.88
2023-03-03T00:22:03.980Z,1.81
2023-03-03T00:23:03.981Z,1.81
2023-03-03T00:24:04.061Z,1.81
2023-03-03T00:25:04.061Z,1.81
2023-03-03T00:26:04.075Z,1.75
2023-03-03T00:27:04.069Z,1.81
2023-03-03T00:28:04.068Z,1.81
2023-03-03T00:29:04.151Z,1.81
2023-03-03T00:30:04.190Z,1.81
2023-03-03T00:31:04.272Z,1.75
2023-03-03T00:32:04.153Z,1.81
2023-03-03T00:33:04.142Z,1.81
2023-03-03T00:34:04.319Z,1.81
2023-03-03T00:35:04.263Z,1.81
2023-03-03T00:36:04.153Z,1.81
2023-03-03T00:37:04.163Z,1.81
2023-03-03T00:38:04.154Z,1.81
2023-03-03T00:39:04.144Z,1.88
2023-03-03T00:40:04.226Z,1.88
2023-03-03T00:41:04.312Z,1.81
2023-03-03T00:42:04.371Z,1.81
2023-03-03T00:43:04.317Z,1.81
2023-03-03T00:44:04.305Z,1.81
2023-03-03T00:45:04.315Z,1.81
2023-03-03T00:46:04.460Z,1.81
2023-03-03T00:47:04.578Z,1.81
2023-03-03T00:48:04.470Z,1.81
2023-03-03T00:49:03.512Z,1.81
2023-03-03T00:50:04.468Z,1.81
2023-03-03T00:51:03.602Z,1.81
2023-03-03T00:52:03.589Z,1.81
2023-03-03T00:53:03.501Z,1.75
2023-03-03T00:54:03.589Z,1.75
2023-03-03T00:55:03.666Z,1.75
2023-03-03T00:56:03.835Z,1.75
2023-03-03T00:57:03.747Z,1.69
2023-03-03T00:58:03.741Z,1.69
2023-03-03T00:59:03.836Z,1.69
2023-03-03T01:00:03.830Z,1.69
2023-03-03T01:01:03.739Z,1.69
2023-03-03T01:02:03.754Z,1.69
2023-03-03T01:03:03.804Z,1.69
2023-03-03T01:04:03.695Z,1.69
2023-03-03T01:05:03.675Z,1.69
2023-03-03T01:06:03.666Z,1.69
2023-03-03T01:07:03.761Z,1.69
2023-03-03T01:08:03.669Z,1.69
2023-03-03T01:09:03.696Z,1.69
2023-03-03T01:10:03.913Z,1.69
2023-03-03T01:11:03.833Z,1.69
2023-03-03T01:12:03.742Z,1.69
2023-03-03T01:13:03.832Z,1.69
2023-03-03T01:14:03.784Z,1.69
2023-03-03T01:15:03.822Z,1.69
2023-03-03T01:16:03.781Z,1.62
2023-03-03T01:17:03.837Z,1.62
2023-03-03T01:18:03.818Z,1.62
2023-03-03T01:19:03.827Z,1.62
2023-03-03T01:20:03.766Z,1.62
2023-03-03T01:21:03.755Z,1.56
2023-03-03T01:22:03.678Z,1.56
2023-03-03T01:23:03.790Z,1.56
2023-03-03T01:24:03.700Z,1.56
2023-03-03T01:25:04.551Z,1.56
2023-03-03T01:26:03.595Z,1.50
2023-03-03T01:27:03.595Z,1.50
2023-03-03T01:28:03.831Z,1.50
2023-03-03T01:29:04.640Z,1.50
2023-03-03T01:30:03.827Z,1.50
2023-03-03T01:31:03.883Z,1.50
2023-03-03T01:32:03.896Z,1.50
2023-03-03T01:33:03.738Z,1.50
2023-03-03T01:34:03.739Z,1.56
2023-03-03T01:35:03.846Z,1.56
2023-03-03T01:36:03.769Z,1.50
2023-03-03T01:37:03.825Z,1.50
2023-03-03T01:38:03.753Z,1.56
2023-03-03T01:39:03.852Z,1.50
2023-03-03T01:40:03.752Z,1.56
2023-03-03T01:41:03.833Z,1.50
2023-03-03T01:42:03.762Z,1.50
2023-03-03T01:43:03.747Z,1.44
2023-03-03T01:44:03.760Z,1.44
2023-03-03T01:45:03.742Z,1.38
2023-03-03T01:46:03.666Z,1.38
2023-03-03T01:47:03.685Z,1.38
2023-03-03T01:48:03.669Z,1.38
2023-03-03T01:49:03.691Z,1.38
2023-03-03T01:50:03.595Z,1.38
2023-03-03T01:51:03.669Z,1.38
2023-03-03T01:52:03.758Z,1.38
2023-03-03T01:53:03.755Z,1.31
2023-03-03T01:54:03.838Z,1.31
2023-03-03T01:55:03.907Z,1.31
2023-03-03T01:56:03.984Z,1.31
2023-03-03T01:57:04.067Z,1.31
2023-03-03T01:58:04.058Z,1.31
2023-03-03T01:59:04.079Z,1.31
2023-03-03T02:00:04.090Z,1.38
2023-03-03T02:01:03.994Z,1.31
2023-03-03T02:02:04.132Z,1.31
2023-03-03T02:03:04.177Z,1.31
2023-03-03T02:04:04.159Z,1.25
2023-03-03T02:05:04.141Z,1.25
2023-03-03T02:06:04.221Z,1.25
2023-03-03T02:07:04.315Z,1.25
2023-03-03T02:08:04.229Z,1.25
2023-03-03T02:09:04.136Z,1.31
2023-03-03T02:10:04.224Z,1.25
2023-03-03T02:11:04.232Z,1.25
2023-03-03T02:12:04.228Z,1.25
2023-03-03T02:13:04.154Z,1.25
2023-03-03T02:14:04.228Z,1.25
2023-03-03T02:15:04.308Z,1.25
2023-03-03T02:16:04.273Z,1.25
2023-03-03T02:17:04.391Z,1.25
2023-03-03T02:18:04.402Z,1.31
2023-03-03T02:19:04.405Z,1.25
2023-03-03T02:20:04.388Z,1.25
2023-03-03T02:21:04.392Z,1.25
2023-03-03T02:22:04.391Z,1.25
2023-03-03T02:23:04.400Z,1.19
2023-03-03T02:24:04.391Z,1.19
2023-03-03T02:25:04.314Z,1.19
2023-03-03T02:26:04.323Z,1.19
2023-03-03T02:27:04.312Z,1.19
2023-03-03T02:28:04.394Z,1.06
2023-03-03T02:29:04.405Z,1.12
2023-03-03T02:30:04.392Z,1.06
2023-03-03T02:31:04.310Z,1.12
2023-03-03T02:32:04.517Z,1.06
2023-03-03T02:33:03.527Z,1.06
2023-03-03T02:34:03.526Z,1.06
2023-03-03T02:35:03.522Z,1.00
2023-03-03T02:36:04.470Z,1.00
2023-03-03T02:37:04.396Z,1.00
2023-03-03T02:38:04.499Z,1.06
2023-03-03T02:39:04.420Z,1.06
2023-03-03T02:40:03.522Z,1.06
2023-03-03T02:41:03.510Z,1.06
2023-03-03T02:42:03.600Z,1.06
2023-03-03T02:43:03.514Z,1.00
2023-03-03T02:44:03.721Z,1.00
2023-03-03T02:45:03.592Z,1.00
2023-03-03T02:46:03.684Z,0.94
2023-03-03T02:47:03.623Z,0.94
2023-03-03T02:48:03.681Z,0.94
2023-03-03T02:49:03.866Z,0.94
2023-03-03T02:50:03.904Z,0.94
2023-03-03T02:51:03.904Z,0.94
2023-03-03T02:52:04.028Z,0.94
2023-03-03T02:53:03.995Z,0.94
2023-03-03T02:54:03.994Z,0.94
2023-03-03T02:55:04.108Z,0.88
2023-03-03T02:56:04.072Z,0.88
2023-03-03T02:57:04.144Z,0.88
2023-03-03T02:58:04.230Z,0.88
2023-03-03T02:59:04.247Z,0.88
2023-03-03T03:00:04.226Z,0.88
2023-03-03T03:01:04.301Z,0.88
2023-03-03T03:02:04.403Z,0.88
2023-03-03T03:03:04.392Z,0.88
2023-03-03T03:04:04.332Z,0.88
2023-03-03T03:05:04.300Z,0.88
2023-03-03T03:06:04.395Z,0.81
2023-03-03T03:07:03.509Z,0.81
2023-03-03T03:08:03.590Z,0.81
2023-03-03T03:09:04.467Z,0.81
2023-03-03T03:10:03.511Z,0.81
2023-03-03T03:11:03.519Z,0.81
2023-03-03T03:12:03.500Z,0.81
2023-03-03T03:13:03.511Z,0.81
2023-03-03T03:14:03.513Z,0.88
2023-03-03T03:15:04.393Z,0.88
2023-03-03T03:16:03.432Z,0.81
2023-03-03T03:17:04.464Z,0.81
2023-03-03T03:18:04.474Z,0.81
2023-03-03T03:19:04.395Z,0.81
2023-03-03T03:20:04.304Z,0.81
2023-03-03T03:21:04.304Z,0.81
2023-03-03T03:22:04.306Z,0.81
2023-03-03T03:23:04.249Z,0.81
2023-03-03T03:24:04.262Z,0.81
2023-03-03T03:25:04.300Z,0.81
2023-03-03T03:26:04.386Z,0.81
2023-03-03T03:27:04.389Z,0.75
2023-03-03T03:28:04.474Z,0.81
2023-03-03T03:29:04.578Z,0.81
2023-03-03T03:30:04.313Z,0.81
2023-03-03T03:31:04.434Z,0.81
2023-03-03T03:32:04.595Z,0.81
2023-03-03T03:33:04.383Z,0.81
2023-03-03T03:34:04.481Z,0.81
2023-03-03T03:35:04.460Z,0.75
2023-03-03T03:36:04.398Z,0.75
2023-03-03T03:37:04.398Z,0.75
2023-03-03T03:38:04.391Z,0.75
2023-03-03T03:39:04.469Z,0.75
2023-03-03T03:40:04.402Z,0.75
2023-03-03T03:41:04.303Z,0.75
2023-03-03T03:42:04.241Z,0.75
2023-03-03T03:43:05.211Z,0.75
2023-03-03T03:44:04.304Z,0.75
2023-03-03T03:45:04.314Z,0.69
2023-03-03T03:46:04.301Z,0.69
2023-03-03T03:47:04.238Z,0.69
2023-03-03T03:48:04.156Z,0.69
2023-03-03T03:49:04.154Z,0.69
2023-03-03T03:50:04.153Z,0.69
2023-03-03T03:51:04.142Z,0.75
2023-03-03T03:52:04.148Z,0.69
2023-03-03T03:53:04.078Z,0.69
2023-03-03T03:54:04.235Z,0.69
2023-03-03T03:55:04.226Z,0.69
2023-03-03T03:56:04.172Z,0.69
2023-03-03T03:57:04.230Z,0.69
2023-03-03T03:58:04.231Z,0.69
2023-03-03T03:59:04.231Z,0.69
2023-03-03T04:00:04.230Z,0.69
2023-03-03T04:01:04.234Z,0.75
2023-03-03T04:02:04.336Z,0.75
2023-03-03T04:03:04.325Z,0.75
2023-03-03T04:04:04.317Z,0.75
2023-03-03T04:05:04.307Z,0.75
2023-03-03T04:06:04.230Z,0.75
2023-03-03T04:07:04.152Z,0.75
2023-03-03T04:08:04.158Z,0.75
2023-03-03T04:09:04.235Z,0.75
2023-03-03T04:10:04.158Z,0.75
2023-03-03T04:11:04.161Z,0.75
2023-03-03T04:12:04.146Z,0.75
2023-03-03T04:13:04.236Z,0.75
2023-03-03T04:14:04.072Z,0.75
2023-03-03T04:15:04.073Z,0.75
2023-03-03T04:16:04.355Z,0.75
2023-03-03T04:17:04.405Z,0.69
2023-03-03T04:18:04.318Z,0.69
2023-03-03T04:19:04.241Z,0.69
2023-03-03T04:20:04.230Z,0.69
2023-03-03T04:21:04.318Z,0.69
2023-03-03T04:22:04.395Z,0.69
2023-03-03T04:23:04.495Z,0.69
2023-03-03T04:24:03.634Z,0.69
2023-03-03T04:25:03.620Z,0.69
2023-03-03T04:26:03.545Z,0.69
2023-03-03T04:27:03.510Z,0.69
2023-03-03T04:28:05.610Z,0.69
2023-03-03T04:29:04.478Z,0.69
2023-03-03T04:30:04.492Z,0.69
2023-03-03T04:31:03.584Z,0.69
2023-03-03T04:32:03.484Z,0.69
2023-03-03T04:33:04.468Z,0.62
2023-03-03T04:34:03.517Z,0.69
2023-03-03T04:35:07.970Z,0.69
2023-03-03T04:36:03.747Z,0.69
2023-03-03T04:37:03.757Z,0.62
2023-03-03T04:38:03.928Z,0.62
2023-03-03T04:39:03.917Z,0.62
2023-03-03T04:40:03.993Z,0.62
2023-03-03T04:41:03.908Z,0.62
2023-03-03T04:42:03.912Z,0.62
2023-03-03T04:43:03.925Z,0.62
2023-03-03T04:44:03.918Z,0.62
2023-03-03T04:45:03.933Z,0.62
2023-03-03T04:46:03.965Z,0.56
2023-03-03T04:47:04.013Z,0.62
2023-03-03T04:48:04.002Z,0.56
2023-03-03T04:49:05.214Z,0.56
2023-03-03T04:50:04.802Z,0.56
2023-03-03T04:51:04.182Z,0.56
2023-03-03T04:52:04.234Z,0.56
2023-03-03T04:53:04.153Z,0.62
2023-03-03T04:54:04.148Z,0.62
2023-03-03T04:55:04.235Z,0.62
2023-03-03T04:56:04.154Z,0.56
2023-03-03T04:57:04.232Z,0.56
2023-03-03T04:58:04.320Z,0.56
2023-03-03T04:59:04.405Z,0.50
2023-03-03T05:00:04.396Z,0.56
2023-03-03T05:01:04.426Z,0.56
2023-03-03T05:02:04.401Z,0.50
2023-03-03T05:03:03.511Z,0.50
2023-03-03T05:04:03.512Z,0.50
2023-03-03T05:05:03.652Z,0.50
2023-03-03T05:06:03.617Z,0.44
2023-03-03T05:07:03.597Z,0.44
2023-03-03T05:08:03.591Z,0.44
2023-03-03T05:09:03.511Z,0.44
2023-03-03T05:10:03.595Z,0.44
2023-03-03T05:11:03.506Z,0.44
2023-03-03T05:12:03.590Z,0.44
2023-03-03T05:13:03.667Z,0.44
2023-03-03T05:14:03.758Z,0.50
2023-03-03T05:15:03.675Z,0.50
2023-03-03T05:16:03.773Z,0.44
2023-03-03T05:17:03.597Z,0.44
2023-03-03T05:18:03.703Z,0.50
2023-03-03T05:19:03.669Z,0.50
2023-03-03T05:20:03.606Z,0.44
2023-03-03T05:21:03.668Z,0.44
2023-03-03T05:22:03.585Z,0.44
2023-03-03T05:23:03.536Z,0.44
2023-03-03T05:24:03.581Z,0.44
2023-03-03T05:25:03.845Z,0.44
2023-03-03T05:26:03.756Z,0.44
2023-03-03T05:27:03.677Z,0.44
2023-03-03T05:28:03.583Z,0.44
2023-03-03T05:29:03.581Z,0.44
2023-03-03T05:30:03.585Z,0.44
2023-03-03T05:31:03.615Z,0.44
2023-03-03T05:32:03.786Z,0.44
2023-03-03T05:33:03.748Z,0.44
2023-03-03T05:34:03.764Z,0.44
2023-03-03T05:35:03.761Z,0.44
2023-03-03T05:36:03.754Z,0.44
2023-03-03T05:37:03.749Z,0.38
2023-03-03T05:38:05.381Z,0.44
2023-03-03T05:39:03.752Z,0.44
2023-03-03T05:40:03.740Z,0.44
2023-03-03T05:41:03.746Z,0.38
2023-03-03T05:42:03.734Z,0.44
2023-03-03T05:43:03.742Z,0.44
2023-03-03T05:44:03.782Z,0.38
2023-03-03T05:45:03.745Z,0.38
2023-03-03T05:46:03.685Z,0.38
2023-03-03T05:47:03.752Z,0.38
2023-03-03T05:48:03.748Z,0.38
2023-03-03T05:49:03.741Z,0.38
2023-03-03T05:50:03.742Z,0.31
2023-03-03T05:51:03.831Z,0.38
2023-03-03T05:52:03.834Z,0.38
2023-03-03T05:53:03.734Z,0.38
2023-03-03T05:54:03.837Z,0.38
2023-03-03T05:55:03.667Z,0.31
2023-03-03T05:56:03.744Z,0.31
2023-03-03T05:57:03.675Z,0.31
2023-03-03T05:58:03.597Z,0.31
2023-03-03T05:59:03.591Z,0.25
2023-03-03T06:00:03.676Z,0.25
2023-03-03T06:01:03.805Z,0.19
2023-03-03T06:02:03.570Z,0.19
2023-03-03T06:03:03.580Z,0.12
2023-03-03T06:04:03.604Z,0.12
2023-03-03T06:05:03.587Z,0.12
2023-03-03T06:06:03.601Z,0.12
2023-03-03T06:07:03.619Z,0.12
2023-03-03T06:08:03.510Z,0.12
2023-03-03T06:09:03.618Z,0.06
2023-03-03T06:10:03.774Z,0.12
2023-03-03T06:11:03.832Z,0.06
2023-03-03T06:12:03.680Z,0.00
2023-03-03T06:13:03.596Z,0.00
2023-03-03T06:14:03.514Z,0.00
2023-03-03T06:15:03.730Z,0.00
2023-03-03T06:16:03.705Z,0.00
2023-03-03T06:17:03.684Z,0.00
2023-03-03T06:18:03.600Z,-0.06
2023-03-03T06:19:03.590Z,0.00
2023-03-03T06:20:03.773Z,0.00
2023-03-03T06:21:03.674Z,-0.06
2023-03-03T06:22:03.774Z,-0.06
2023-03-03T06:23:03.685Z,0.00
2023-03-03T06:24:03.831Z,0.00
2023-03-03T06:25:04.068Z,0.00
2023-03-03T06:26:04.152Z,0.00
2023-03-03T06:27:04.224Z,0.00
2023-03-03T06:28:04.396Z,-0.06
2023-03-03T06:29:04.324Z,-0.06
2023-03-03T06:30:04.331Z,-0.06
2023-03-03T06:31:04.239Z,-0.06
2023-03-03T06:32:04.426Z,0.00
2023-03-03T06:33:04.266Z,-0.06
2023-03-03T06:34:04.248Z,0.00
2023-03-03T06:35:04.221Z,0.00
2023-03-03T06:36:05.772Z,0.00
2023-03-03T06:37:04.149Z,0.00
2023-03-03T06:38:04.223Z,0.06
2023-03-03T06:39:04.228Z,0.00
2023-03-03T06:40:04.270Z,0.00
2023-03-03T06:41:04.322Z,0.00
2023-03-03T06:42:04.393Z,0.00
2023-03-03T06:43:04.416Z,0.00
2023-03-03T06:44:04.406Z,0.00
2023-03-03T06:45:04.393Z,0.00
2023-03-03T06:46:04.353Z,0.00
2023-03-03T06:47:04.225Z,0.00
2023-03-03T06:48:04.222Z,0.00
2023-03-03T06:49:04.248Z,0.06
2023-03-03T06:50:04.163Z,0.00
2023-03-03T06:51:04.226Z,0.00
2023-03-03T06:52:04.401Z,0.00
2023-03-03T06:53:04.301Z,0.00
2023-03-03T06:54:04.317Z,0.00
2023-03-03T06:55:04.390Z,0.00
2023-03-03T06:56:04.301Z,0.06
2023-03-03T06:57:04.465Z,0.00
2023-03-03T06:58:04.473Z,0.06
2023-03-03T06:59:04.468Z,0.06
2023-03-03T07:00:04.421Z,0.06
2023-03-03T07:01:04.491Z,0.06
2023-03-03T07:02:04.384Z,0.12
2023-03-03T07:03:04.310Z,0.31
2023-03-03T07:04:04.345Z,0.31
2023-03-03T07:05:04.309Z,0.31
2023-03-03T07:06:06.164Z,0.31
2023-03-03T07:07:04.209Z,0.25
2023-03-03T07:08:04.159Z,0.25
2023-03-03T07:09:04.086Z,0.25
2023-03-03T07:10:04.155Z,0.25
2023-03-03T07:11:04.151Z,0.25
2023-03-03T07:12:04.323Z,0.25
2023-03-03T07:13:04.253Z,0.25
2023-03-03T07:14:04.147Z,0.25
2023-03-03T07:15:04.319Z,0.25
2023-03-03T07:16:04.345Z,0.25
2023-03-03T07:17:04.397Z,0.25
2023-03-03T07:18:04.401Z,0.25
2023-03-03T07:19:04.403Z,0.25
2023-03-03T07:20:04.403Z,0.25
2023-03-03T07:21:04.492Z,0.25
2023-03-03T07:22:04.566Z,0.25
2023-03-03T07:23:04.403Z,0.25
2023-03-03T07:24:04.561Z,0.25
2023-03-03T07:25:04.415Z,0.25
2023-03-03T07:26:04.405Z,0.25
2023-03-03T07:27:04.338Z,0.25
2023-03-03T07:28:04.407Z,0.25
2023-03-03T07:29:04.500Z,0.25
2023-03-03T07:30:04.425Z,0.25
2023-03-03T07:31:04.523Z,0.25
2023-03-03T07:32:04.393Z,0.25
2023-03-03T07:33:04.564Z,0.25
2023-03-03T07:34:03.611Z,0.25
2023-03-03T07:35:03.688Z,0.25
2023-03-03T07:36:03.684Z,0.25
2023-03-03T07:37:03.762Z,0.25
2023-03-03T07:38:03.803Z,0.31
2023-03-03T07:39:03.678Z,0.31
2023-03-03T07:40:03.854Z,0.31
2023-03-03T07:41:03.784Z,0.31
2023-03-03T07:42:03.686Z,0.38
2023-03-03T07:43:03.767Z,0.38
2023-03-03T07:44:03.679Z,0.38
2023-03-03T07:45:03.801Z,0.38
2023-03-03T07:46:03.872Z,0.38
2023-03-03T07:47:03.684Z,0.38
2023-03-03T07:48:03.682Z,0.38
2023-03-03T07:49:03.779Z,0.38
2023-03-03T07:50:03.923Z,0.38
2023-03-03T07:51:04.016Z,0.38
2023-03-03T07:52:03.926Z,0.38
2023-03-03T07:53:03.926Z,0.38
2023-03-03T07:54:04.088Z,0.38
2023-03-03T07:55:04.006Z,0.38
2023-03-03T07:56:04.102Z,0.44
2023-03-03T07:57:03.928Z,0.44
2023-03-03T07:58:04.403Z,0.44
2023-03-03T07:59:03.713Z,0.38
2023-03-03T08:00:03.608Z,0.44
2023-03-03T08:01:03.692Z,0.44
2023-03-03T08:02:03.847Z,0.44
2023-03-03T08:03:03.841Z,0.44
2023-03-03T08:04:03.833Z,0.44
2023-03-03T08:05:05.214Z,0.44
2023-03-03T08:06:03.740Z,0.44
2023-03-03T08:07:03.700Z,0.44
2023-03-03T08:08:03.850Z,0.44
2023-03-03T08:09:03.953Z,0.38
2023-03-03T08:10:04.004Z,0.38
2023-03-03T08:11:04.173Z,0.44
2023-03-03T08:12:04.260Z,0.50
2023-03-03T08:13:04.242Z,0.50
2023-03-03T08:14:04.334Z,0.56
2023-03-03T08:15:04.236Z,0.50
2023-03-03T08:16:04.536Z,0.50
2023-03-03T08:17:04.407Z,0.50
2023-03-03T08:18:04.481Z,0.44
2023-03-03T08:19:04.481Z,0.44
2023-03-03T08:20:03.521Z,0.44
2023-03-03T08:21:03.509Z,0.50
2023-03-03T08:22:03.512Z,0.44
2023-03-03T08:23:03.517Z,0.44
2023-03-03T08:24:03.593Z,0.44
2023-03-03T08:25:03.595Z,0.38
2023-03-03T08:26:03.593Z,0.38
2023-03-03T08:27:03.525Z,0.38
2023-03-03T08:28:03.510Z,0.38
2023-03-03T08:29:03.600Z,0.38
2023-03-03T08:30:03.676Z,0.38
2023-03-03T08:31:16.584Z,0.38
2023-03-03T08:32:03.756Z,0.38
2023-03-03T08:33:03.535Z,0.38
2023-03-03T08:34:03.587Z,0.38
2023-03-03T08:35:03.593Z,0.38
2023-03-03T08:36:03.635Z,0.38
2023-03-03T08:37:03.678Z,0.38
2023-03-03T08:38:03.748Z,0.31
2023-03-03T08:39:03.747Z,0.31
2023-03-03T08:40:03.740Z,0.31
2023-03-03T08:41:03.741Z,0.31
2023-03-03T08:42:03.762Z,0.31
2023-03-03T08:43:03.754Z,0.31
2023-03-03T08:44:03.676Z,0.31
2023-03-03T08:45:03.755Z,0.31
2023-03-03T08:46:03.743Z,0.31
2023-03-03T08:47:03.751Z,0.38
2023-03-03T08:48:05.997Z,0.38
2023-03-03T08:49:03.829Z,0.38
2023-03-03T08:50:03.827Z,0.38
2023-03-03T08:51:03.913Z,0.38
2023-03-03T08:52:04.008Z,0.38
2023-03-03T08:53:03.917Z,0.38
2023-03-03T08:54:04.008Z,0.44
2023-03-03T08:55:03.921Z,0.44
2023-03-03T08:56:03.914Z,0.44
2023-03-03T08:57:03.916Z,0.44
2023-03-03T08:58:03.841Z,0.50
2023-03-03T08:59:03.919Z,0.44
2023-03-03T09:00:03.766Z,0.50
2023-03-03T09:01:03.765Z,0.44
2023-03-03T09:02:03.929Z,0.44
2023-03-03T09:03:03.846Z,0.50
2023-03-03T09:04:03.747Z,0.44
2023-03-03T09:05:03.827Z,0.44
2023-03-03T09:06:03.821Z,0.44
2023-03-03T09:07:03.827Z,0.50
2023-03-03T09:08:03.911Z,0.44
2023-03-03T09:09:03.903Z,0.44
2023-03-03T09:10:03.958Z,0.44
2023-03-03T09:11:04.111Z,0.44
2023-03-03T09:12:04.163Z,0.44
2023-03-03T09:13:04.172Z,0.44
2023-03-03T09:14:04.187Z,0.44
2023-03-03T09:15:04.246Z,0.44
2023-03-03T09:16:04.360Z,0.44
2023-03-03T09:17:04.489Z,0.44
2023-03-03T09:18:04.301Z,0.50
2023-03-03T09:19:04.471Z,0.44
2023-03-03T09:20:03.506Z,0.44
2023-03-03T09:21:03.589Z,0.44
2023-03-03T09:22:03.514Z,0.50
2023-03-03T09:23:03.513Z,0.50
2023-03-03T09:24:03.515Z,0.44
2023-03-03T09:25:03.592Z,0.44
2023-03-03T09:26:03.501Z,0.44
2023-03-03T09:27:03.514Z,0.44
2023-03-03T09:28:03.584Z,0.44
2023-03-03T09:29:03.673Z,0.50
2023-03-03T09:30:03.678Z,0.50
2023-03-03T09:31:04.843Z,0.50
2023-03-03T09:32:03.694Z,0.44
2023-03-03T09:33:03.601Z,0.44
2023-03-03T09:34:03.583Z,0.44
2023-03-03T09:35:03.588Z,0.50
2023-03-03T09:36:03.591Z,0.50
2023-03-03T09:37:03.583Z,0.50
2023-03-03T09:38:03.579Z,0.50
2023-03-03T09:39:03.589Z,0.50
2023-03-03T09:40:03.681Z,0.50
2023-03-03T09:41:03.764Z,0.50
2023-03-03T09:42:03.666Z,0.44
2023-03-03T09:43:03.671Z,0.44
2023-03-03T09:44:03.670Z,0.44
2023-03-03T09:45:03.825Z,0.44
2023-03-03T09:46:03.663Z,0.44
2023-03-03T09:47:03.815Z,0.50
2023-03-03T09:48:03.829Z,0.50
2023-03-03T09:49:03.739Z,0.50
2023-03-03T09:50:03.695Z,0.56
2023-03-03T09:51:03.762Z,0.56
2023-03-03T09:52:03.669Z,0.56
2023-03-03T09:53:03.664Z,0.56
2023-03-03T09:54:03.664Z,0.62
2023-03-03T09:55:03.665Z,0.62
2023-03-03T09:56:03.661Z,0.62
2023-03-03T09:57:03.673Z,0.62
2023-03-03T09:58:10.324Z,0.62
2023-03-03T09:59:03.666Z,0.62
2023-03-03T10:00:03.534Z,0.69
2023-03-03T10:01:03.512Z,0.69
2023-03-03T10:02:04.850Z,0.69
2023-03-03T10:03:03.679Z,0.75
2023-03-03T10:04:03.640Z,0.75
2023-03-03T10:05:03.660Z,0.75
2023-03-03T10:06:03.606Z,0.75
2023-03-03T10:07:03.598Z,0.81
2023-03-03T10:08:03.676Z,0.81
2023-03-03T10:09:03.592Z,0.81
2023-03-03T10:10:03.591Z,0.81
2023-03-03T10:11:03.582Z,0.81
2023-03-03T10:12:03.590Z,0.81
2023-03-03T10:13:03.816Z,0.81
2023-03-03T10:14:03.837Z,0.81
2023-03-03T10:15:03.668Z,0.88
2023-03-03T10:16:04.147Z,0.88
2023-03-03T10:17:03.740Z,0.88
2023-03-03T10:18:03.741Z,0.88
2023-03-03T10:19:03.693Z,0.94
2023-03-03T10:20:03.764Z,0.94
2023-03-03T10:21:03.754Z,0.94
2023-03-03T10:22:03.759Z,0.94
2023-03-03T10:23:03.848Z,1.00
2023-03-03T10:24:03.846Z,1.00
2023-03-03T10:25:03.988Z,1.00
2023-03-03T10:26:04.060Z,1.00
2023-03-03T10:27:13.282Z,1.00
2023-03-03T10:28:04.167Z,1.06
2023-03-03T10:29:04.151Z,1.06
2023-03-03T10:30:04.237Z,1.06
2023-03-03T10:31:08.161Z,1.06
2023-03-03T10:32:04.394Z,1.06
2023-03-03T10:33:04.364Z,1.06
2023-03-03T10:34:04.312Z,1.06
2023-03-03T10:35:04.394Z,1.06
2023-03-03T10:36:07.249Z,1.12
2023-03-03T10:37:04.376Z,1.12
2023-03-03T10:38:04.475Z,1.12
2023-03-03T10:39:04.469Z,1.12
2023-03-03T10:40:04.384Z,1.12
2023-03-03T10:41:04.399Z,1.06
2023-03-03T10:42:04.393Z,1.06
2023-03-03T10:43:04.498Z,1.12
2023-03-03T10:44:03.513Z,1.12
2023-03-03T10:45:03.527Z,1.12
2023-03-03T10:46:04.042Z,1.12
2023-03-03T10:47:03.914Z,1.12
2023-03-03T10:48:04.063Z,1.12
2023-03-03T10:49:03.989Z,1.12
2023-03-03T10:50:04.145Z,1.12
2023-03-03T10:51:04.078Z,1.12
2023-03-03T10:52:04.488Z,1.12
2023-03-03T10:53:04.474Z,1.12
2023-03-03T10:54:04.399Z,1.19
2023-03-03T10:55:04.542Z,1.12
2023-03-03T10:56:04.479Z,1.12
2023-03-03T10:57:03.523Z,1.12
2023-03-03T10:58:03.602Z,1.12
2023-03-03T10:59:03.749Z,1.12
2023-03-03T11:00:03.591Z,1.12
2023-03-03T11:01:03.760Z,1.12
2023-03-03T11:02:03.659Z,1.12
2023-03-03T11:03:03.863Z,1.19
2023-03-03T11:04:03.799Z,1.19
2023-03-03T11:05:03.756Z,1.19
2023-03-03T11:06:03.781Z,1.19
2023-03-03T11:07:06.023Z,1.19
2023-03-03T11:08:04.299Z,1.19
2023-03-03T11:09:03.837Z,1.12
2023-03-03T11:10:03.834Z,1.19
2023-03-03T11:11:03.750Z,1.19
2023-03-03T11:12:03.836Z,1.19
2023-03-03T11:13:03.836Z,1.19
2023-03-03T11:14:03.852Z,1.19
2023-03-03T11:15:03.969Z,1.12
2023-03-03T11:16:03.829Z,1.12
2023-03-03T11:17:04.014Z,1.06
2023-03-03T11:18:03.823Z,1.06
2023-03-03T11:19:03.760Z,1.00
2023-03-03T11:20:03.986Z,1.00
2023-03-03T11:21:03.850Z,1.00
2023-03-03T11:22:03.918Z,1.00
2023-03-03T11:23:03.912Z,0.94
2023-03-03T11:24:03.900Z,0.94
2023-03-03T11:25:04.010Z,0.94
2023-03-03T11:26:04.002Z,0.94
2023-03-03T11:27:03.967Z,0.94
2023-03-03T11:28:03.926Z,0.94
2023-03-03T11:29:03.914Z,0.94
2023-03-03T11:30:04.005Z,0.88
2023-03-03T11:31:04.038Z,0.88
2023-03-03T11:32:04.076Z,0.88
2023-03-03T11:33:04.170Z,0.81
2023-03-03T11:34:04.233Z,0.75
2023-03-03T11:35:04.222Z,0.75
2023-03-03T11:36:04.346Z,0.75
2023-03-03T11:37:04.309Z,0.81
2023-03-03T11:38:04.423Z,0.81
2023-03-03T11:39:04.314Z,0.81
2023-03-03T11:40:04.551Z,0.81
2023-03-03T11:41:04.559Z,0.88
2023-03-03T11:42:04.381Z,0.94
2023-03-03T11:43:04.393Z,0.94
2023-03-03T11:44:03.592Z,1.00
2023-03-03T11:45:03.613Z,1.00
2023-03-03T11:46:03.707Z,1.00
2023-03-03T11:47:03.685Z,0.94
2023-03-03T11:48:03.764Z,0.94
2023-03-03T11:49:03.760Z,0.94
2023-03-03T11:50:03.764Z,0.88
2023-03-03T11:51:03.768Z,0.81
2023-03-03T11:52:03.755Z,0.81
2023-03-03T11:53:03.596Z,0.88
2023-03-03T11:54:03.598Z,0.88
2023-03-03T11:55:03.692Z,0.94
2023-03-03T11:56:03.770Z,1.00
2023-03-03T11:57:03.755Z,1.00
2023-03-03T11:58:03.765Z,1.00
2023-03-03T11:59:03.752Z,1.00
2023-03-03T12:00:03.770Z,1.06
2023-03-03T12:01:04.149Z,1.06
2023-03-03T12:02:03.661Z,1.06
2023-03-03T12:03:03.678Z,1.12
2023-03-03T12:04:03.991Z,1.12
2023-03-03T12:05:03.992Z,1.12
2023-03-03T12:06:04.102Z,1.12
2023-03-03T12:07:09.672Z,1.12
2023-03-03T12:08:03.998Z,1.12
2023-03-03T12:09:03.996Z,1.06
2023-03-03T12:10:04.009Z,1.06
2023-03-03T12:11:04.000Z,1.06
2023-03-03T12:12:03.998Z,1.06
2023-03-03T12:13:04.161Z,1.06
2023-03-03T12:14:04.250Z,1.12
2023-03-03T12:15:04.228Z,1.12
2023-03-03T12:16:04.355Z,1.12
2023-03-03T12:17:04.226Z,1.12
2023-03-03T12:18:04.314Z,1.12
2023-03-03T12:19:04.229Z,1.12
2023-03-03T12:20:04.226Z,1.19
2023-03-03T12:21:04.221Z,1.19
2023-03-03T12:22:04.175Z,1.19
2023-03-03T12:23:06.699Z,1.19
2023-03-03T12:24:04.881Z,1.19
2023-03-03T12:25:04.437Z,1.19
2023-03-03T12:26:04.502Z,1.19
2023-03-03T12:27:03.665Z,1.19
2023-03-03T12:28:03.625Z,1.19
2023-03-03T12:29:03.714Z,1.25
2023-03-03T12:30:05.221Z,1.25
2023-03-03T12:31:04.073Z,1.19
2023-03-03T12:32:03.989Z,1.19
2023-03-03T12:33:03.930Z,1.19
2023-03-03T12:34:04.033Z,1.19
2023-03-03T12:35:03.945Z,1.19
2023-03-03T12:36:04.017Z,1.19
2023-03-03T12:37:04.041Z,1.19
2023-03-03T12:38:04.113Z,1.12
2023-03-03T12:39:04.032Z,1.19
2023-03-03T12:40:04.101Z,1.19
2023-03-03T12:41:04.266Z,1.25
2023-03-03T12:42:05.332Z,1.25
2023-03-03T12:43:04.194Z,1.25
2023-03-03T12:44:04.380Z,1.31
2023-03-03T12:45:04.414Z,1.31
2023-03-03T12:46:04.347Z,1.31
2023-03-03T12:47:04.425Z,1.31
2023-03-03T12:48:04.340Z,1.31
2023-03-03T12:49:04.295Z,1.31
2023-03-03T12:50:08.049Z,1.38
2023-03-03T12:51:04.288Z,1.38
2023-03-03T12:52:04.269Z,1.38
2023-03-03T12:53:09.786Z,1.38
2023-03-03T12:54:04.278Z,1.38
2023-03-03T12:55:04.262Z,1.38
2023-03-03T12:56:04.272Z,1.38
2023-03-03T12:57:04.278Z,1.38
2023-03-03T12:58:04.203Z,1.38
2023-03-03T12:59:04.347Z,1.38
2023-03-03T13:00:04.435Z,1.38
2023-03-03T13:01:04.447Z,1.38
2023-03-03T13:02:03.544Z,1.38
2023-03-03T13:03:03.695Z,1.38
2023-03-03T13:04:04.221Z,1.38
2023-03-03T13:05:04.215Z,1.38
2023-03-03T13:06:04.264Z,1.44
2023-03-03T13:07:04.359Z,1.44
2023-03-03T13:08:04.403Z,1.44
2023-03-03T13:09:04.435Z,1.44
2023-03-03T13:10:04.372Z,1.44
2023-03-03T13:11:04.519Z,1.44
2023-03-03T13:12:04.517Z,1.50
2023-03-03T13:13:04.505Z,1.50
2023-03-03T13:14:04.502Z,1.56
2023-03-03T13:15:03.535Z,1.50
2023-03-03T13:16:06.367Z,1.56
2023-03-03T13:17:03.867Z,1.56
2023-03-03T13:18:03.868Z,1.56